Time;durP1;ratioP1;P1;durP2;ratioP2;P2;SDS_P1;SDS_P2;PMS_P1;PMS_P2;Temp;Humidity;BMP_temperature;BMP_pressure;BME280_temperature;BME280_humidity;BME280_pressure;Samples;Min_cycle;Max_cycle;Signal;HPM_P1;HPM_P2
2022/11/10 00:00:44;;;;;;;12.43;3.40;;;10.00;99.90;;;;;;5117390;28;20031;-71
2022/11/10 00:03:10;;;;;;;14.15;4.03;;;10.00;99.90;;;;;;5117639;28;20514;-71
2022/11/10 00:05:37;;;;;;;17.85;4.35;;;9.90;99.90;;;;;;5117225;28;20047;-71
2022/11/10 00:08:05;;;;;;;18.33;3.88;;;9.90;99.90;;;;;;5117304;28;20118;-71
2022/11/10 00:10:31;;;;;;;17.35;4.60;;;9.90;99.90;;;;;;5100610;28;20044;-71
2022/11/10 00:13:01;;;;;;;17.95;3.95;;;9.90;99.90;;;;;;5117693;28;20043;-71
2022/11/10 00:18:12;;;;;;;19.42;4.50;;;9.90;99.90;;;;;;5116966;28;20040;-71
2022/11/10 00:20:37;;;;;;;18.80;4.50;;;9.80;99.90;;;;;;5117396;28;20044;-71
2022/11/10 00:23:03;;;;;;;18.13;4.57;;;9.80;99.90;;;;;;5116773;28;20036;-71
2022/11/10 00:25:30;;;;;;;22.20;4.68;;;9.80;99.90;;;;;;5117062;28;20122;-71
2022/11/10 00:27:58;;;;;;;19.67;4.32;;;9.80;99.90;;;;;;5116951;28;20043;-72
2022/11/10 00:30:24;;;;;;;16.75;4.45;;;9.80;99.90;;;;;;5116769;28;20051;-71
2022/11/10 00:32:50;;;;;;;20.15;4.30;;;9.70;99.90;;;;;;5116828;28;20412;-71
2022/11/10 00:35:16;;;;;;;18.00;4.28;;;9.80;99.90;;;;;;5116749;28;20035;-71
2022/11/10 00:37:41;;;;;;;18.58;5.40;;;9.70;99.90;;;;;;5116900;28;20067;-71
2022/11/10 00:40:08;;;;;;;21.63;4.88;;;9.70;99.90;;;;;;5116574;28;20604;-71
2022/11/10 00:42:33;;;;;;;20.60;4.63;;;9.70;99.90;;;;;;5117385;28;20086;-71
2022/11/10 00:44:59;;;;;;;18.55;4.57;;;9.70;99.90;;;;;;5116569;28;20031;-71
2022/11/10 00:47:24;;;;;;;18.83;4.80;;;9.70;99.90;;;;;;5116585;28;20036;-71
2022/11/10 00:49:51;;;;;;;22.58;4.65;;;9.60;99.90;;;;;;5116803;28;20054;-71
2022/11/10 00:52:16;;;;;;;19.42;4.75;;;9.70;99.90;;;;;;5117852;28;20043;-71
2022/11/10 00:54:42;;;;;;;19.35;5.10;;;9.60;99.90;;;;;;5116243;28;20110;-71
2022/11/10 00:57:08;;;;;;;20.88;4.45;;;9.60;99.90;;;;;;5116179;28;20114;-71
2022/11/10 00:59:33;;;;;;;20.92;5.22;;;9.60;99.90;;;;;;5115958;28;20088;-71
2022/11/10 01:01:59;;;;;;;22.98;5.32;;;9.60;99.90;;;;;;5115980;28;20160;-71
2022/11/10 01:04:24;;;;;;;19.63;4.80;;;9.50;99.90;;;;;;5116045;28;20044;-71
2022/11/10 01:06:51;;;;;;;22.02;5.20;;;9.50;99.90;;;;;;5115746;28;20044;-71
2022/11/10 01:09:17;;;;;;;21.13;5.25;;;9.50;99.90;;;;;;5115915;28;20044;-71
2022/11/10 01:11:42;;;;;;;21.65;5.68;;;9.50;99.90;;;;;;5116003;28;20051;-71
2022/11/10 01:14:08;;;;;;;22.60;5.25;;;9.50;99.90;;;;;;5115925;28;20079;-71
2022/11/10 01:16:33;;;;;;;18.88;5.13;;;9.50;99.90;;;;;;5115602;28;20067;-71
2022/11/10 01:19:01;;;;;;;22.70;5.20;;;9.50;99.90;;;;;;5115651;28;20065;-71
2022/11/10 01:21:28;;;;;;;21.00;4.68;;;9.40;99.90;;;;;;5098581;28;20081;-71
2022/11/10 01:23:54;;;;;;;21.10;5.20;;;9.40;99.90;;;;;;5115827;28;20050;-70
2022/11/10 01:26:19;;;;;;;17.27;4.90;;;9.40;99.90;;;;;;5115738;28;20043;-71
2022/11/10 01:28:45;;;;;;;18.35;5.05;;;9.40;99.90;;;;;;5098415;28;20042;-71
2022/11/10 01:31:14;;;;;;;15.65;4.57;;;9.40;99.90;;;;;;5115569;28;20054;-71
2022/11/10 01:33:40;;;;;;;15.35;5.18;;;9.40;99.90;;;;;;5098549;28;20126;-71
2022/11/10 01:36:08;;;;;;;18.27;5.32;;;9.40;99.90;;;;;;5115531;28;20535;-71
2022/11/10 01:38:36;;;;;;;26.05;5.57;;;9.40;99.90;;;;;;5115104;28;20027;-71
2022/11/10 01:41:03;;;;;;;19.50;5.38;;;9.40;99.90;;;;;;5098122;28;20082;-71
2022/11/10 01:43:29;;;;;;;14.98;5.35;;;9.30;99.90;;;;;;5115349;28;20055;-71
2022/11/10 01:46:03;;;;;;;22.83;5.68;;;9.30;99.90;;;;;;5115398;28;20044;-71
2022/11/10 01:48:48;;;;;;;20.33;6.00;;;9.30;99.90;;;;;;5115658;28;20043;-72
2022/11/10 01:51:29;;;;;;;23.83;5.80;;;9.30;99.90;;;;;;5114391;28;20035;-71
2022/11/10 01:53:58;;;;;;;25.83;5.38;;;9.30;99.90;;;;;;5098060;28;20044;-71
2022/11/10 01:56:28;;;;;;;24.00;5.68;;;9.30;99.90;;;;;;5114545;28;20500;-72
2022/11/10 01:58:58;;;;;;;22.48;5.55;;;9.30;99.90;;;;;;5114653;28;20040;-72
2022/11/10 02:01:24;;;;;;;18.48;5.38;;;9.30;99.90;;;;;;5115004;28;20039;-71
2022/11/10 02:03:57;;;;;;;20.83;5.25;;;9.30;99.90;;;;;;5114739;28;20043;-71
2022/11/10 02:06:28;;;;;;;24.55;5.78;;;9.30;99.90;;;;;;5114826;28;20047;-71
2022/11/10 02:08:55;;;;;;;23.75;5.35;;;9.20;99.90;;;;;;5116342;28;20035;-71
2022/11/10 02:11:22;;;;;;;22.67;5.18;;;9.20;99.90;;;;;;5114500;28;20051;-71
2022/11/10 02:13:47;;;;;;;18.42;5.22;;;9.20;99.90;;;;;;5114519;28;20039;-71
2022/11/10 02:16:13;;;;;;;18.73;5.05;;;9.20;99.90;;;;;;5114436;28;20062;-71
2022/11/10 02:18:39;;;;;;;18.27;5.30;;;9.20;99.90;;;;;;5114346;28;20035;-71
2022/11/10 02:21:06;;;;;;;19.70;5.18;;;9.30;99.90;;;;;;5114064;28;20051;-71
2022/11/10 02:23:34;;;;;;;20.88;4.50;;;9.30;99.90;;;;;;5114172;28;20035;-71
2022/11/10 02:26:05;;;;;;;19.75;5.28;;;9.30;99.90;;;;;;5113992;28;20092;-71
2022/11/10 02:28:36;;;;;;;20.23;4.75;;;9.30;99.90;;;;;;5114292;28;20043;-71
2022/11/10 02:31:03;;;;;;;18.85;4.43;;;9.30;99.90;;;;;;5114556;28;20126;-71
2022/11/10 02:33:29;;;;;;;17.58;4.55;;;9.30;99.90;;;;;;5097374;28;20495;-71
2022/11/10 02:35:55;;;;;;;20.75;4.20;;;9.30;99.90;;;;;;5113876;28;20035;-71
2022/11/10 02:38:20;;;;;;;17.10;4.00;;;9.30;99.90;;;;;;5114772;28;20400;-71
2022/11/10 02:40:48;;;;;;;15.68;4.53;;;9.30;99.90;;;;;;5113889;28;20039;-71
2022/11/10 02:43:15;;;;;;;16.58;3.92;;;9.30;99.90;;;;;;5113488;28;20476;-71
2022/11/10 02:45:44;;;;;;;18.13;3.95;;;9.30;99.90;;;;;;5114185;28;20048;-71
2022/11/10 02:48:11;;;;;;;17.17;3.75;;;9.40;99.90;;;;;;5114248;28;20046;-71
2022/11/10 02:50:37;;;;;;;16.83;4.32;;;9.40;99.90;;;;;;5114147;28;20096;-71
2022/11/10 02:53:03;;;;;;;16.95;4.20;;;9.30;99.90;;;;;;5114398;28;20092;-71
2022/11/10 02:55:29;;;;;;;19.30;4.10;;;9.40;99.90;;;;;;5114145;28;20040;-71
2022/11/10 02:57:54;;;;;;;17.98;4.80;;;9.40;99.90;;;;;;5114161;28;20050;-71
2022/11/10 03:00:20;;;;;;;16.17;4.10;;;9.40;99.90;;;;;;5113705;28;20419;-70
2022/11/10 03:02:46;;;;;;;21.52;5.00;;;9.40;99.90;;;;;;5112897;28;20492;-71
2022/11/10 03:05:12;;;;;;;18.10;4.70;;;9.40;99.90;;;;;;5114284;28;20050;-71
2022/11/10 03:07:37;;;;;;;23.75;4.88;;;9.40;99.90;;;;;;5113622;28;20452;-71
2022/11/10 03:10:04;;;;;;;15.27;4.50;;;9.40;99.90;;;;;;5113601;28;20043;-71
2022/11/10 03:12:30;;;;;;;20.92;4.50;;;9.40;99.90;;;;;;5113955;28;20079;-71
2022/11/10 03:14:56;;;;;;;28.10;5.07;;;9.40;99.90;;;;;;5113316;28;20090;-71
2022/11/10 03:17:21;;;;;;;18.05;4.97;;;9.50;99.90;;;;;;5113964;28;20043;-72
2022/11/10 03:19:48;;;;;;;20.13;6.00;;;9.40;99.90;;;;;;5113949;28;20043;-72
2022/11/10 03:22:14;;;;;;;23.65;5.38;;;9.40;99.90;;;;;;5113868;28;20071;-71
2022/11/10 03:24:39;;;;;;;21.33;5.50;;;9.40;99.90;;;;;;5113622;28;20487;-71
2022/11/10 03:27:05;;;;;;;17.25;4.80;;;9.40;99.90;;;;;;5113677;28;20043;-71
2022/11/10 03:29:30;;;;;;;19.70;5.20;;;9.40;99.90;;;;;;5113578;28;20046;-71
2022/11/10 03:31:56;;;;;;;26.17;6.10;;;9.40;99.90;;;;;;5113564;28;20036;-71
2022/11/10 03:34:22;;;;;;;17.17;5.15;;;9.40;99.90;;;;;;5115263;28;20399;-71
2022/11/10 03:36:47;;;;;;;22.20;6.93;;;9.40;99.90;;;;;;5113412;28;20046;-71
2022/11/10 03:39:13;;;;;;;23.02;5.72;;;9.40;99.90;;;;;;5113875;28;20408;-72
2022/11/10 03:41:38;;;;;;;21.73;5.93;;;9.40;99.90;;;;;;5113438;28;20032;-71
2022/11/10 03:44:04;;;;;;;22.45;5.85;;;9.40;99.90;;;;;;5113873;28;20039;-71
2022/11/10 03:46:30;;;;;;;17.08;5.82;;;9.40;99.90;;;;;;5113503;28;20448;-71
2022/11/10 03:48:55;;;;;;;21.05;5.97;;;9.40;99.90;;;;;;5113493;28;20114;-71
2022/11/10 03:51:21;;;;;;;22.85;6.07;;;9.40;99.90;;;;;;5113462;28;20043;-71
2022/11/10 03:53:46;;;;;;;24.65;6.30;;;9.40;99.90;;;;;;5113498;28;20070;-71
2022/11/10 03:56:12;;;;;;;24.98;6.10;;;9.30;99.90;;;;;;5113282;28;20047;-71
2022/11/10 03:58:37;;;;;;;21.23;6.63;;;9.40;99.90;;;;;;5113350;28;20118;-71
2022/11/10 04:01:03;;;;;;;24.85;6.47;;;9.30;99.90;;;;;;5113160;28;20043;-71
2022/11/10 04:03:29;;;;;;;27.77;7.65;;;9.40;99.90;;;;;;5113042;28;20523;-71
2022/11/10 04:16:51;;;;;;;27.65;8.05;;;9.40;99.90;;;;;;5117974;28;20044;-71
2022/11/10 04:19:17;;;;;;;24.00;8.00;;;9.40;99.90;;;;;;5116817;28;20377;-71
2022/11/10 04:21:43;;;;;;;26.73;7.60;;;9.40;99.90;;;;;;5116584;28;20107;-71
2022/11/10 04:24:08;;;;;;;26.05;6.60;;;9.50;99.90;;;;;;5117141;28;20118;-71
2022/11/10 04:26:37;;;;;;;28.27;8.00;;;9.50;99.90;;;;;;5116586;28;20126;-71
2022/11/10 04:29:04;;;;;;;22.05;7.18;;;9.50;99.90;;;;;;5117154;28;20095;-71
2022/11/10 04:31:33;;;;;;;25.95;7.00;;;9.50;99.90;;;;;;5116628;28;20039;-71
2022/11/10 04:33:59;;;;;;;24.08;7.18;;;9.50;99.90;;;;;;5116828;28;20059;-71
2022/11/10 04:36:27;;;;;;;24.50;7.07;;;9.50;99.90;;;;;;5116248;28;20039;-71
2022/11/10 04:38:54;;;;;;;25.45;7.95;;;9.50;99.90;;;;;;5116397;28;20043;-71
2022/11/10 04:41:20;;;;;;;26.55;7.93;;;9.50;99.90;;;;;;5116334;28;20415;-71
2022/11/10 04:43:46;;;;;;;30.25;7.55;;;9.50;99.90;;;;;;5116857;28;20035;-71
2022/11/10 04:46:26;;;;;;;29.42;8.05;;;9.50;99.90;;;;;;5116651;28;20048;-71
2022/11/10 04:48:53;;;;;;;28.20;7.65;;;9.60;99.90;;;;;;5116511;28;20043;-71
2022/11/10 04:51:23;;;;;;;25.73;7.45;;;9.50;99.90;;;;;;5099155;28;20079;-71
2022/11/10 04:53:49;;;;;;;27.13;7.57;;;9.60;99.90;;;;;;5116088;28;20044;-71
2022/11/10 04:56:20;;;;;;;26.90;7.95;;;9.60;99.90;;;;;;5116217;28;20043;-71
2022/11/10 04:58:46;;;;;;;29.38;8.02;;;9.60;99.90;;;;;;5116436;28;20051;-71
2022/11/10 05:01:14;;;;;;;25.75;7.40;;;9.60;99.90;;;;;;5099061;28;20035;-71
2022/11/10 05:03:41;;;;;;;23.40;6.88;;;9.60;99.90;;;;;;5116550;28;20059;-71
2022/11/10 05:06:06;;;;;;;30.92;7.35;;;9.50;99.90;;;;;;5099219;28;20031;-71
2022/11/10 05:08:32;;;;;;;26.80;7.45;;;9.60;99.90;;;;;;5116263;28;20510;-71
2022/11/10 05:10:58;;;;;;;25.13;6.97;;;9.50;99.90;;;;;;5115991;28;20054;-71
2022/11/10 05:13:24;;;;;;;26.55;7.82;;;9.50;99.90;;;;;;5115795;28;20046;-71
2022/11/10 05:15:50;;;;;;;28.70;7.88;;;9.50;99.90;;;;;;5115766;28;20096;-71
2022/11/10 05:18:16;;;;;;;27.33;7.13;;;9.50;99.90;;;;;;5115528;28;20044;-71
2022/11/10 05:20:41;;;;;;;22.52;6.90;;;9.60;99.90;;;;;;5115945;28;20044;-71
2022/11/10 05:25:51;;;;;;;30.67;7.65;;;9.50;99.90;;;;;;5114877;28;20424;-71
2022/11/10 05:28:16;;;;;;;26.60;7.13;;;9.50;99.90;;;;;;5115652;28;20040;-71
2022/11/10 05:30:42;;;;;;;33.55;8.02;;;9.50;99.90;;;;;;5115578;28;20104;-70
2022/11/10 05:33:08;;;;;;;26.88;7.75;;;9.50;99.90;;;;;;5115603;28;20075;-71
2022/11/10 05:35:34;;;;;;;29.77;7.40;;;9.50;99.90;;;;;;5115311;28;20086;-71
2022/11/10 05:38:01;;;;;;;27.25;7.60;;;9.50;99.90;;;;;;5115289;28;20123;-71
2022/11/10 05:40:27;;;;;;;26.65;7.80;;;9.50;99.90;;;;;;5115119;28;20039;-70
2022/11/10 05:42:53;;;;;;;31.17;7.72;;;9.50;99.90;;;;;;5115197;28;20040;-71
2022/11/10 05:45:21;;;;;;;25.05;8.20;;;9.50;99.90;;;;;;5115167;28;20401;-71
2022/11/10 05:47:47;;;;;;;32.80;8.18;;;9.50;99.90;;;;;;5115096;28;20092;-71
2022/11/10 05:50:12;;;;;;;33.28;8.68;;;9.50;99.90;;;;;;5115354;28;20031;-71
2022/11/10 05:52:46;;;;;;;29.65;7.95;;;9.50;99.90;;;;;;5116064;28;20062;-71
2022/11/10 05:55:13;;;;;;;32.80;7.85;;;9.60;99.90;;;;;;5115179;28;20104;-71
2022/11/10 05:57:45;;;;;;;26.58;8.02;;;9.60;99.90;;;;;;5115112;28;20047;-71
2022/11/10 06:00:13;;;;;;;27.53;8.90;;;9.60;99.90;;;;;;5114947;28;20040;-71
2022/11/10 06:02:38;;;;;;;31.63;9.23;;;9.60;99.90;;;;;;5114737;28;20198;-71
2022/11/10 06:05:04;;;;;;;27.90;8.25;;;9.60;99.90;;;;;;5114873;28;20036;-71
2022/11/10 06:07:30;;;;;;;23.98;8.15;;;9.60;99.90;;;;;;5114862;28;20399;-71
2022/11/10 06:09:55;;;;;;;32.03;8.93;;;9.60;99.90;;;;;;5114977;28;20045;-71
2022/11/10 06:12:23;;;;;;;25.80;8.70;;;9.60;99.90;;;;;;5097445;28;20039;-71
2022/11/10 06:14:50;;;;;;;31.85;8.38;;;9.60;99.90;;;;;;5116279;28;20495;-70
2022/11/10 06:17:16;;;;;;;30.20;9.18;;;9.60;99.90;;;;;;5114443;28;20042;-71
2022/11/10 06:19:41;;;;;;;32.17;9.10;;;9.60;99.90;;;;;;5114263;28;20041;-71
2022/11/10 06:22:07;;;;;;;33.50;9.23;;;9.60;99.90;;;;;;5114442;28;20043;-71
2022/11/10 06:24:32;;;;;;;34.65;9.30;;;9.60;99.90;;;;;;5114441;28;20035;-71
2022/11/10 06:26:58;;;;;;;32.47;8.75;;;9.60;99.90;;;;;;5114507;28;20629;-71
2022/11/10 06:29:23;;;;;;;32.72;8.93;;;9.60;99.90;;;;;;5114005;28;20597;-71
2022/11/10 06:31:49;;;;;;;31.23;8.63;;;9.60;99.90;;;;;;5113028;28;20126;-70
2022/11/10 06:34:14;;;;;;;30.30;9.30;;;9.50;99.90;;;;;;5113394;28;20123;-71
2022/11/10 06:36:40;;;;;;;33.47;8.38;;;9.50;99.90;;;;;;5113103;28;20177;-72
2022/11/10 06:39:05;;;;;;;29.58;7.57;;;9.50;99.90;;;;;;5096891;28;20035;-70
2022/11/10 06:41:32;;;;;;;22.17;7.55;;;9.50;99.90;;;;;;5113516;28;20039;-71
2022/11/10 06:43:58;;;;;;;30.38;8.48;;;9.60;99.90;;;;;;5113613;28;20050;-71
2022/11/10 06:46:24;;;;;;;25.85;7.97;;;9.60;99.90;;;;;;5115021;28;20071;-71
2022/11/10 06:48:49;;;;;;;35.20;8.27;;;9.60;99.90;;;;;;5113395;28;20042;-71
2022/11/10 06:51:15;;;;;;;33.92;8.18;;;9.60;99.90;;;;;;5113912;28;20043;-71
2022/11/10 06:53:41;;;;;;;29.13;8.32;;;9.60;99.90;;;;;;5113756;28;20389;-71
2022/11/10 06:56:07;;;;;;;30.42;8.13;;;9.60;99.90;;;;;;5113387;28;20044;-71
2022/11/10 06:58:33;;;;;;;30.08;8.93;;;9.60;99.90;;;;;;5113933;28;20531;-71
2022/11/10 07:00:59;;;;;;;32.60;8.05;;;9.60;99.90;;;;;;5113382;28;20075;-71
2022/11/10 07:03:25;;;;;;;31.00;8.60;;;9.60;99.90;;;;;;5097325;28;20044;-71
2022/11/10 07:05:51;;;;;;;30.17;8.60;;;9.60;99.90;;;;;;5113203;28;20043;-71
2022/11/10 07:08:16;;;;;;;26.98;7.55;;;9.60;99.90;;;;;;5112675;28;20534;-71
2022/11/10 07:10:44;;;;;;;29.70;8.15;;;9.60;99.90;;;;;;5113058;28;20035;-71
2022/11/10 07:13:10;;;;;;;31.10;8.10;;;9.60;99.90;;;;;;5113593;28;20043;-71
2022/11/10 07:15:36;;;;;;;26.13;8.18;;;9.60;99.90;;;;;;5114083;28;20044;-70
2022/11/10 07:18:02;;;;;;;35.10;8.57;;;9.60;99.90;;;;;;5115517;28;20031;-70
2022/11/10 07:20:29;;;;;;;26.02;8.10;;;9.60;99.90;;;;;;5114579;28;20089;-70
2022/11/10 07:22:59;;;;;;;27.52;8.02;;;9.70;99.90;;;;;;5116213;28;20400;-70
2022/11/10 07:25:25;;;;;;;23.67;7.85;;;9.70;99.90;;;;;;5114256;28;20122;-70
2022/11/10 07:28:02;;;;;;;36.40;8.57;;;9.80;99.90;;;;;;5114467;28;20122;-71
2022/11/10 07:30:29;;;;;;;29.52;8.20;;;9.90;99.90;;;;;;5113930;28;20052;-70
2022/11/10 07:33:08;;;;;;;24.23;8.00;;;9.90;99.90;;;;;;5114244;28;20048;-71
2022/11/10 07:35:34;;;;;;;26.58;7.57;;;9.90;99.90;;;;;;5113638;28;20035;-71
2022/11/10 07:38:05;;;;;;;28.13;8.02;;;9.90;99.90;;;;;;5114039;28;20044;-71
2022/11/10 07:40:31;;;;;;;29.08;8.48;;;10.00;99.90;;;;;;5114151;28;20050;-70
2022/11/10 07:42:57;;;;;;;26.05;8.35;;;10.00;99.90;;;;;;5114071;28;20031;-70
2022/11/10 07:45:23;;;;;;;26.60;8.20;;;10.00;99.90;;;;;;5113388;28;20051;-70
2022/11/10 07:47:49;;;;;;;31.60;8.35;;;10.00;99.90;;;;;;5113460;28;20092;-70
2022/11/10 07:50:16;;;;;;;28.63;8.23;;;10.00;99.90;;;;;;5117497;28;20044;-70
2022/11/10 07:52:42;;;;;;;28.15;8.23;;;10.00;99.90;;;;;;5117774;28;20054;-71
2022/11/10 07:55:07;;;;;;;25.48;7.88;;;10.00;99.90;;;;;;5117881;28;20407;-71
2022/11/10 07:57:33;;;;;;;30.15;8.77;;;10.00;99.90;;;;;;5117328;28;20035;-71
2022/11/10 07:59:59;;;;;;;33.55;8.32;;;10.00;99.90;;;;;;5117354;28;20035;-71
2022/11/10 08:02:25;;;;;;;24.10;7.63;;;10.10;99.90;;;;;;5117355;28;20042;-70
2022/11/10 08:04:51;;;;;;;30.45;9.32;;;10.10;99.90;;;;;;5117238;28;20088;-71
2022/11/10 08:07:17;;;;;;;24.33;8.05;;;10.10;99.90;;;;;;5117271;28;20048;-71
2022/11/10 08:09:43;;;;;;;23.63;8.30;;;10.10;99.90;;;;;;5117441;28;20073;-71
2022/11/10 08:12:08;;;;;;;28.85;7.95;;;10.10;99.90;;;;;;5117304;28;20101;-70
2022/11/10 08:14:34;;;;;;;29.52;8.15;;;10.10;99.90;;;;;;5117135;28;20484;-71
2022/11/10 08:17:00;;;;;;;30.17;8.27;;;10.10;99.90;;;;;;5117998;28;20135;-70
2022/11/10 08:19:25;;;;;;;29.73;8.18;;;10.10;99.90;;;;;;5117208;28;20156;-70
2022/11/10 08:21:51;;;;;;;29.92;8.30;;;10.10;99.90;;;;;;5116887;28;20373;-71
2022/11/10 08:24:16;;;;;;;27.85;7.75;;;10.20;99.90;;;;;;5116878;28;20403;-70
2022/11/10 08:26:42;;;;;;;27.00;7.55;;;10.20;99.90;;;;;;5116719;28;20048;-71
2022/11/10 08:29:07;;;;;;;24.55;8.13;;;10.30;99.90;;;;;;5116075;28;20043;-71
2022/11/10 08:31:33;;;;;;;29.38;7.55;;;10.50;99.90;;;;;;5116466;28;20449;-70
2022/11/10 08:33:59;;;;;;;31.02;8.38;;;10.60;99.90;;;;;;5116350;28;20500;-71
2022/11/10 08:36:24;;;;;;;26.80;8.57;;;10.70;99.90;;;;;;5116241;28;20047;-71
2022/11/10 08:38:50;;;;;;;27.83;8.02;;;10.80;99.90;;;;;;5116526;28;20062;-71
2022/11/10 08:41:16;;;;;;;30.20;7.65;;;10.90;99.90;;;;;;5117354;28;20502;-71
2022/11/10 08:43:41;;;;;;;30.52;7.88;;;11.10;99.90;;;;;;5116046;28;20408;-72
2022/11/10 08:46:07;;;;;;;23.92;7.15;;;11.10;99.90;;;;;;5116273;28;20031;-71
2022/11/10 08:48:33;;;;;;;27.67;8.40;;;11.20;99.90;;;;;;5116185;28;20039;-71
2022/11/10 08:51:00;;;;;;;22.63;7.30;;;11.20;99.90;;;;;;5116181;28;20039;-71
2022/11/10 08:53:25;;;;;;;32.38;7.65;;;11.20;99.90;;;;;;5116593;28;20042;-71
2022/11/10 08:55:52;;;;;;;26.50;7.57;;;11.20;99.90;;;;;;5116541;28;20086;-71
2022/11/10 08:58:22;;;;;;;31.48;7.85;;;11.30;99.90;;;;;;5116390;28;20039;-71
2022/11/10 09:00:49;;;;;;;28.15;6.50;;;11.30;99.90;;;;;;5115073;28;20106;-71
2022/11/10 09:03:17;;;;;;;25.08;6.30;;;11.30;99.90;;;;;;5116634;28;20108;-71
2022/11/10 09:05:44;;;;;;;25.63;6.80;;;11.40;99.90;;;;;;5116045;28;20101;-71
2022/11/10 09:08:10;;;;;;;33.88;6.53;;;11.40;99.90;;;;;;5116058;28;20047;-71
2022/11/10 09:10:41;;;;;;;30.15;6.45;;;11.50;99.90;;;;;;5115957;28;20043;-72
2022/11/10 09:13:08;;;;;;;23.92;5.95;;;11.50;99.90;;;;;;5115509;28;20066;-72
2022/11/10 09:15:34;;;;;;;25.50;5.68;;;11.60;99.90;;;;;;5115720;28;20048;-71
2022/11/10 09:18:02;;;;;;;23.10;6.53;;;11.70;99.90;;;;;;5116525;28;20090;-71
2022/11/10 09:20:29;;;;;;;23.17;5.35;;;11.80;99.90;;;;;;5116159;28;20035;-71
2022/11/10 09:22:54;;;;;;;24.60;6.00;;;11.90;99.90;;;;;;5116101;28;20054;-71
2022/11/10 09:25:20;;;;;;;26.13;6.00;;;11.90;99.90;;;;;;5116274;28;20044;-71
2022/11/10 09:27:46;;;;;;;25.20;6.10;;;11.90;99.90;;;;;;5115852;28;20035;-72
2022/11/10 09:30:12;;;;;;;24.33;6.60;;;12.00;99.90;;;;;;5116239;28;20112;-72
2022/11/10 09:32:37;;;;;;;20.45;5.25;;;12.10;99.90;;;;;;5116292;28;20054;-71
2022/11/10 09:35:04;;;;;;;19.02;5.30;;;12.10;99.90;;;;;;5115802;28;20470;-71
2022/11/10 09:37:29;;;;;;;23.80;5.65;;;12.20;99.90;;;;;;5115964;28;20054;-71
2022/11/10 09:39:55;;;;;;;25.25;6.00;;;12.20;99.90;;;;;;5115812;28;20067;-71
2022/11/10 09:42:37;;;;;;;22.77;5.53;;;12.30;99.90;;;;;;5115918;28;20028;-71
2022/11/10 09:45:25;;;;;;;20.70;4.70;;;12.30;99.90;;;;;;5115969;28;20054;-71
2022/11/10 09:48:00;;;;;;;28.60;5.60;;;12.40;99.90;;;;;;5116538;28;20050;-71
2022/11/10 09:50:40;;;;;;;26.02;6.57;;;12.50;99.90;;;;;;5114576;28;20381;-71
2022/11/10 09:53:16;;;;;;;25.98;7.45;;;12.60;99.90;;;;;;5116032;28;20122;-72
2022/11/10 09:55:47;;;;;;;26.52;8.38;;;12.70;99.90;;;;;;5115570;28;20047;-71
2022/11/10 09:58:14;;;;;;;38.90;9.80;;;12.80;99.90;;;;;;5115787;28;20035;-71
2022/11/10 10:00:43;;;;;;;32.05;9.98;;;12.80;99.90;;;;;;5115644;28;20042;-71
2022/11/10 10:03:17;;;;;;;34.50;11.70;;;12.80;99.90;;;;;;5115718;28;20105;-71
2022/11/10 10:05:47;;;;;;;29.23;11.50;;;12.80;99.90;;;;;;5116194;28;20079;-71
2022/11/10 10:08:35;;;;;;;36.55;10.88;;;12.70;99.90;;;;;;5117134;28;20496;-71
2022/11/10 10:11:40;;;;;;;32.25;10.77;;;12.70;99.90;;;;;;5115541;28;20123;-71
2022/11/10 10:14:28;;;;;;;28.58;10.27;;;12.70;99.90;;;;;;5115648;28;20080;-72
2022/11/10 10:17:02;;;;;;;37.05;10.20;;;12.70;99.90;;;;;;5116251;28;20048;-71
2022/11/10 10:19:56;;;;;;;28.60;9.70;;;12.80;99.90;;;;;;5115872;28;20484;-71
2022/11/10 10:22:35;;;;;;;29.92;8.57;;;12.90;99.90;;;;;;5115626;28;20076;-71
2022/11/10 10:25:13;;;;;;;24.70;8.00;;;12.90;99.90;;;;;;5116122;28;20096;-71
2022/11/10 10:27:42;;;;;;;28.27;6.40;;;13.00;99.90;;;;;;5098655;28;20108;-71
2022/11/10 10:30:17;;;;;;;24.35;6.78;;;13.10;99.90;;;;;;5099034;28;20035;-72
2022/11/10 10:32:43;;;;;;;21.15;5.40;;;13.20;99.90;;;;;;5115142;28;20123;-72
2022/11/10 10:35:14;;;;;;;22.38;4.75;;;13.20;99.90;;;;;;5115172;28;20071;-71
2022/11/10 10:37:44;;;;;;;26.05;5.07;;;13.20;99.90;;;;;;5115806;28;20074;-72
2022/11/10 10:40:20;;;;;;;22.25;4.50;;;13.30;99.90;;;;;;5115335;28;20100;-72
2022/11/10 10:42:46;;;;;;;28.70;5.63;;;13.30;99.90;;;;;;5114746;28;20032;-71
2022/11/10 10:45:25;;;;;;;22.80;4.30;;;13.40;99.90;;;;;;5115221;28;20043;-71
2022/11/10 10:47:52;;;;;;;24.98;4.30;;;13.50;99.90;;;;;;5115344;28;20039;-71
2022/11/10 10:50:23;;;;;;;19.77;4.63;;;13.60;99.90;;;;;;5114926;28;20067;-71
2022/11/10 10:53:06;;;;;;;21.40;4.13;;;13.60;99.90;;;;;;5114917;28;20040;-71
2022/11/10 10:55:33;;;;;;;;;;;13.70;99.90;;;;;;5114676;28;20047;-72
2022/11/10 10:58:01;;;;;;;17.05;3.92;;;13.70;99.90;;;;;;5114913;28;19915;-72
2022/11/10 11:00:28;;;;;;;19.23;3.70;;;14.00;99.90;;;;;;5114469;28;20065;-71
2022/11/10 11:03:12;;;;;;;23.48;4.20;;;14.60;99.90;;;;;;5114267;28;20035;-71
2022/11/10 11:05:38;;;;;;;19.75;3.75;;;15.40;99.90;;;;;;5114749;28;20043;-71
2022/11/10 11:08:03;;;;;;;23.67;4.47;;;16.30;99.90;;;;;;5114455;28;20461;-71
2022/11/10 11:10:32;;;;;;;16.73;3.67;;;16.50;99.90;;;;;;5114025;28;20054;-72
2022/11/10 11:13:14;;;;;;;23.73;4.65;;;16.30;99.90;;;;;;5114264;28;20039;-71
2022/11/10 11:15:40;;;;;;;14.55;3.63;;;16.30;99.90;;;;;;5114189;28;20039;-72
2022/11/10 11:18:17;;;;;;;24.70;4.40;;;16.40;99.90;;;;;;5096863;28;20373;-72
2022/11/10 11:21:05;;;;;;;23.77;4.60;;;16.30;99.90;;;;;;5113588;28;20071;-71
2022/11/10 11:23:52;;;;;;;22.27;4.72;;;16.00;99.90;;;;;;5113415;28;20032;-72
2022/11/10 11:26:24;;;;;;;18.60;4.07;;;15.60;99.90;;;;;;5114059;28;20088;-72
2022/11/10 11:29:07;;;;;;;20.02;3.70;;;15.20;99.90;;;;;;5114924;28;20039;-72
2022/11/10 11:31:58;;;;;;;14.15;3.22;;;14.90;99.90;;;;;;5114621;28;20040;-72
2022/11/10 11:34:57;;;;;;;18.88;4.25;;;14.60;99.90;;;;;;5114597;28;20055;-71
2022/11/10 11:37:49;;;;;;;21.17;3.33;;;14.40;99.90;;;;;;5114872;28;20051;-72
2022/11/10 11:40:52;;;;;;;23.63;4.80;;;14.20;99.90;;;;;;5098539;28;20071;-72
2022/11/10 11:43:55;;;;;;;19.67;4.40;;;14.10;99.90;;;;;;5115132;28;20054;-71
2022/11/10 11:46:43;;;;;;;16.88;3.50;;;14.00;99.90;;;;;;5114998;28;20062;-71
2022/11/10 11:49:40;;;;;;;18.73;3.67;;;14.10;99.90;;;;;;5115220;28;20054;-71
2022/11/10 11:52:57;;;;;;;19.67;3.95;;;14.20;99.90;;;;;;5115414;28;20054;-71
2022/11/10 11:55:41;;;;;;;20.25;3.42;;;14.30;99.90;;;;;;5017685;28;20095;-71
2022/11/10 11:58:09;;;;;;;20.23;3.67;;;14.30;99.90;;;;;;5017524;28;20181;-72
2022/11/10 12:00:48;;;;;;;23.60;4.25;;;14.20;99.90;;;;;;5017647;28;20529;-71
2022/11/10 12:03:33;;;;;;;16.38;3.80;;;14.20;99.90;;;;;;5018166;28;20049;-71
2022/11/10 12:06:07;;;;;;;18.88;3.72;;;14.10;99.90;;;;;;5016543;28;20068;-72
2022/11/10 12:09:12;;;;;;;18.30;3.50;;;14.00;99.90;;;;;;5015219;28;20156;-72
2022/11/10 12:12:21;;;;;;;19.13;3.33;;;14.00;99.90;;;;;;5031497;28;20502;-72
2022/11/10 12:15:23;;;;;;;19.10;3.70;;;13.90;99.90;;;;;;4969105;28;20557;-71
2022/11/10 12:18:27;;;;;;;19.45;3.85;;;13.80;99.90;;;;;;5011444;28;20054;-72
2022/11/10 12:21:25;;;;;;;21.95;3.92;;;13.70;99.90;;;;;;4956331;28;20076;-72
2022/11/10 12:24:22;;;;;;;18.90;2.83;;;13.70;99.90;;;;;;4956272;28;20047;-71
2022/11/10 12:27:02;;;;;;;23.50;3.90;;;13.70;99.90;;;;;;4956078;28;20051;-72
2022/11/10 12:29:36;;;;;;;17.10;3.45;;;13.60;99.90;;;;;;4956214;28;20496;-72
2022/11/10 12:32:12;;;;;;;18.40;3.67;;;13.70;99.90;;;;;;5010690;28;20119;-73
2022/11/10 12:35:02;;;;;;;19.52;4.38;;;13.70;99.90;;;;;;5015808;28;20048;-72
2022/11/10 12:37:34;;;;;;;25.67;3.67;;;13.70;99.90;;;;;;5018759;28;20128;-72
2022/11/10 12:40:14;;;;;;;24.60;3.80;;;13.80;99.90;;;;;;5018814;28;20041;-72
2022/11/10 12:42:42;;;;;;;17.10;3.55;;;13.80;99.90;;;;;;5018712;28;20277;-71
2022/11/10 12:45:35;;;;;;;15.25;2.75;;;13.90;99.90;;;;;;5018744;28;20128;-72
2022/11/10 12:48:03;;;;;;;23.08;4.10;;;13.90;99.90;;;;;;5012118;28;20099;-72
2022/11/10 12:50:43;;;;;;;18.17;2.95;;;13.80;99.90;;;;;;5019354;28;20049;-71
2022/11/10 12:53:25;;;;;;;19.30;3.17;;;13.80;99.90;;;;;;5019838;28;20045;-72
2022/11/10 12:56:02;;;;;;;20.45;3.35;;;13.80;99.90;;;;;;5045810;28;20091;-71
2022/11/10 12:58:29;;;;;;;21.45;3.55;;;13.80;99.90;;;;;;5117919;28;20107;-72
2022/11/10 13:00:59;;;;;;;17.30;3.33;;;13.80;99.90;;;;;;5117247;28;20035;-72
2022/11/10 13:03:31;;;;;;;19.70;3.70;;;13.80;99.90;;;;;;5118969;28;20035;-71
2022/11/10 13:06:02;;;;;;;19.83;3.55;;;13.80;99.90;;;;;;5117780;28;20067;-71
2022/11/10 13:08:34;;;;;;;18.50;3.15;;;13.80;99.90;;;;;;5117120;28;20118;-71
2022/11/10 13:11:33;;;;;;;19.07;3.30;;;13.90;99.90;;;;;;5117501;28;20044;-71
2022/11/10 13:14:04;;;;;;;18.05;2.92;;;13.80;99.90;;;;;;5063531;28;20785;-71